Pagrindinis puslapis
METAR-TAF:

METAR-TAF

Oro uostai :

Sionderborgas, Danija

platuma: 54-58N, ilguma: 009-47E, Aukštis: 7 m

Dabartinis oras

Ataskaita buvo paskelbta 25 minutes, ne 20:20 UTC
Vėjas 8 kt iš Pietų, svyruoja nuo Pietų/Pietryčių ir Pietvakarių
Temperatūra 11°C
Drėgmė 76%
Slėgis 1000 hPa
Matomumas 10 km arba daugiau

METAR: EKSB 272020Z AUTO 18008KT 150V230 9999NDV ///////// 11/07 Q1000

Laikas: 21:45 (20:45 UTC)

Prognozė

Ataskaita buvo paskelbta 5 valandos ir 47 minutes, ne 14:58 UTC
Prognozė galioja nuo 27 metu 15 UTC su 27 metu 19 UTC
Vėjas 12 kt iš Pietų/Pietvakarių
Matomumas 10 km arba daugiau
Išsisklaidę debesys ne aukštis 2000 ft
Laikinai
nuo 27 metu 15 UTC su 27 metu 19 UTC
Išsisklaidę debesys ne aukštis 2000 ft, Liūtiniai kamuoliniai debesys.
lietus

TAF: EKSB 271458Z 2715/2719 20012KT 9999 SCT020 TEMPO 2715/2719 SHRA SCT020CB

Orai ataskaitas ir orų prognozės (METAR, TAF).

turimą stotys yra geltonos ir raudonos taškus žemėlapyje.

Perkelti pele per norėdami pamatyti stoties vardą.

Tada spustelėkite, norėdami matyti oro stebėjimo ir prognozės.

Norėdami pakeisti žemėlapį: spustelėkite ant žalios mygtukų su juodo kryžiaus žemyn,; žalią mygtuką su brūkšneliu, jei norite nutolinti; arba žalių rodyklių gretimoms žemėlapius.


METAR-TAF: